sensor_id;sensor_type;location;lat;lon;timestamp;P1;durP1;ratioP1;P2;durP2;ratioP2
49235;SDS011;35067;48.134;8.378;2023-09-19T00:00:21;2.03;;;1.57;;
49235;SDS011;35067;48.134;8.378;2023-09-19T00:01:23;2.13;;;1.40;;
49235;SDS011;35067;48.134;8.378;2023-09-19T00:02:24;2.20;;;1.53;;
49235;SDS011;35067;48.134;8.378;2023-09-19T00:03:25;1.70;;;1.50;;
49235;SDS011;35067;48.134;8.378;2023-09-19T00:04:25;3.73;;;1.60;;
49235;SDS011;35067;48.134;8.378;2023-09-19T00:05:29;2.43;;;1.60;;
49235;SDS011;35067;48.134;8.378;2023-09-19T00:06:34;1.70;;;1.40;;
49235;SDS011;35067;48.134;8.378;2023-09-19T00:07:38;1.70;;;1.58;;
49235;SDS011;35067;48.134;8.378;2023-09-19T00:08:40;2.47;;;1.60;;
49235;SDS011;35067;48.134;8.378;2023-09-19T00:09:44;2.60;;;1.50;;
49235;SDS011;35067;48.134;8.378;2023-09-19T00:10:44;2.07;;;1.50;;
49235;SDS011;35067;48.134;8.378;2023-09-19T00:11:45;3.63;;;1.70;;
49235;SDS011;35067;48.134;8.378;2023-09-19T00:12:49;1.60;;;1.50;;
49235;SDS011;35067;48.134;8.378;2023-09-19T00:13:56;1.87;;;1.60;;
49235;SDS011;35067;48.134;8.378;2023-09-19T00:14:59;1.70;;;1.43;;
49235;SDS011;35067;48.134;8.378;2023-09-19T00:16:00;1.70;;;1.50;;
49235;SDS011;35067;48.134;8.378;2023-09-19T00:17:08;2.38;;;1.55;;
49235;SDS011;35067;48.134;8.378;2023-09-19T00:18:09;1.75;;;1.63;;
49235;SDS011;35067;48.134;8.378;2023-09-19T00:19:10;1.80;;;1.40;;
49235;SDS011;35067;48.134;8.378;2023-09-19T00:20:11;2.70;;;1.40;;
49235;SDS011;35067;48.134;8.378;2023-09-19T00:21:12;1.93;;;1.73;;
49235;SDS011;35067;48.134;8.378;2023-09-19T00:22:13;2.47;;;1.77;;
49235;SDS011;35067;48.134;8.378;2023-09-19T00:23:15;2.10;;;1.40;;
49235;SDS011;35067;48.134;8.378;2023-09-19T00:24:16;2.47;;;1.43;;
49235;SDS011;35067;48.134;8.378;2023-09-19T00:25:18;1.87;;;1.60;;
49235;SDS011;35067;48.134;8.378;2023-09-19T00:26:20;2.50;;;1.60;;
49235;SDS011;35067;48.134;8.378;2023-09-19T00:27:21;4.13;;;1.20;;
49235;SDS011;35067;48.134;8.378;2023-09-19T00:28:22;3.77;;;1.50;;
49235;SDS011;35067;48.134;8.378;2023-09-19T00:29:23;3.33;;;1.50;;
49235;SDS011;35067;48.134;8.378;2023-09-19T00:30:25;1.70;;;1.50;;
49235;SDS011;35067;48.134;8.378;2023-09-19T00:31:26;2.43;;;1.60;;
49235;SDS011;35067;48.134;8.378;2023-09-19T00:32:27;3.13;;;1.43;;
49235;SDS011;35067;48.134;8.378;2023-09-19T00:33:32;1.97;;;1.40;;
49235;SDS011;35067;48.134;8.378;2023-09-19T00:34:32;3.80;;;1.80;;
49235;SDS011;35067;48.134;8.378;2023-09-19T00:35:34;3.27;;;2.30;;
49235;SDS011;35067;48.134;8.378;2023-09-19T00:36:37;1.73;;;1.60;;
49235;SDS011;35067;48.134;8.378;2023-09-19T00:37:39;2.57;;;1.73;;
49235;SDS011;35067;48.134;8.378;2023-09-19T00:38:40;2.80;;;1.60;;
49235;SDS011;35067;48.134;8.378;2023-09-19T00:39:40;2.70;;;1.40;;
49235;SDS011;35067;48.134;8.378;2023-09-19T00:40:44;2.60;;;1.87;;
49235;SDS011;35067;48.134;8.378;2023-09-19T00:41:46;1.60;;;1.50;;
49235;SDS011;35067;48.134;8.378;2023-09-19T00:42:48;1.77;;;1.40;;
49235;SDS011;35067;48.134;8.378;2023-09-19T00:43:49;1.98;;;1.70;;
49235;SDS011;35067;48.134;8.378;2023-09-19T00:44:50;2.00;;;1.40;;
49235;SDS011;35067;48.134;8.378;2023-09-19T00:45:52;2.30;;;1.40;;
49235;SDS011;35067;48.134;8.378;2023-09-19T00:46:54;3.07;;;1.67;;
49235;SDS011;35067;48.134;8.378;2023-09-19T00:47:55;2.30;;;1.70;;
49235;SDS011;35067;48.134;8.378;2023-09-19T00:48:56;1.67;;;1.50;;
49235;SDS011;35067;48.134;8.378;2023-09-19T00:49:57;1.67;;;1.47;;
49235;SDS011;35067;48.134;8.378;2023-09-19T00:50:59;3.60;;;1.70;;
49235;SDS011;35067;48.134;8.378;2023-09-19T00:52:04;1.90;;;1.50;;
49235;SDS011;35067;48.134;8.378;2023-09-19T00:53:05;2.83;;;1.40;;
49235;SDS011;35067;48.134;8.378;2023-09-19T00:54:08;2.40;;;1.80;;
49235;SDS011;35067;48.134;8.378;2023-09-19T00:55:09;2.50;;;1.73;;
49235;SDS011;35067;48.134;8.378;2023-09-19T00:56:11;2.33;;;1.60;;
49235;SDS011;35067;48.134;8.378;2023-09-19T00:57:13;2.35;;;1.55;;
49235;SDS011;35067;48.134;8.378;2023-09-19T00:58:16;1.67;;;1.55;;
49235;SDS011;35067;48.134;8.378;2023-09-19T00:59:17;1.57;;;1.47;;
49235;SDS011;35067;48.134;8.378;2023-09-19T01:00:18;3.20;;;1.60;;
49235;SDS011;35067;48.134;8.378;2023-09-19T01:01:20;2.37;;;1.67;;
49235;SDS011;35067;48.134;8.378;2023-09-19T01:02:21;2.08;;;1.60;;
49235;SDS011;35067;48.134;8.378;2023-09-19T01:03:21;3.27;;;1.90;;
49235;SDS011;35067;48.134;8.378;2023-09-19T01:04:23;1.93;;;1.73;;
49235;SDS011;35067;48.134;8.378;2023-09-19T01:05:23;3.07;;;2.10;;
49235;SDS011;35067;48.134;8.378;2023-09-19T01:06:25;2.70;;;1.60;;
49235;SDS011;35067;48.134;8.378;2023-09-19T01:07:26;2.03;;;1.60;;
49235;SDS011;35067;48.134;8.378;2023-09-19T01:08:30;1.70;;;1.60;;
49235;SDS011;35067;48.134;8.378;2023-09-19T01:09:31;2.00;;;1.53;;
49235;SDS011;35067;48.134;8.378;2023-09-19T01:10:32;2.57;;;1.70;;
49235;SDS011;35067;48.134;8.378;2023-09-19T01:11:35;2.58;;;1.85;;
49235;SDS011;35067;48.134;8.378;2023-09-19T01:14:02;2.72;;;1.60;;
49235;SDS011;35067;48.134;8.378;2023-09-19T01:16:46;2.58;;;1.40;;
49235;SDS011;35067;48.134;8.378;2023-09-19T01:22:26;1.60;;;1.50;;
49235;SDS011;35067;48.134;8.378;2023-09-19T01:29:38;2.13;;;1.60;;
49235;SDS011;35067;48.134;8.378;2023-09-19T01:30:43;1.73;;;1.50;;
49235;SDS011;35067;48.134;8.378;2023-09-19T01:31:46;3.80;;;1.50;;
49235;SDS011;35067;48.134;8.378;2023-09-19T01:32:50;2.05;;;1.52;;
49235;SDS011;35067;48.134;8.378;2023-09-19T01:33:59;2.13;;;1.40;;
49235;SDS011;35067;48.134;8.378;2023-09-19T01:35:01;2.70;;;1.38;;
49235;SDS011;35067;48.134;8.378;2023-09-19T01:36:04;3.57;;;1.67;;
49235;SDS011;35067;48.134;8.378;2023-09-19T01:37:05;2.42;;;1.50;;
49235;SDS011;35067;48.134;8.378;2023-09-19T01:38:06;1.50;;;1.27;;
49235;SDS011;35067;48.134;8.378;2023-09-19T01:39:12;2.10;;;1.70;;
49235;SDS011;35067;48.134;8.378;2023-09-19T01:40:14;2.30;;;1.50;;
49235;SDS011;35067;48.134;8.378;2023-09-19T01:41:19;3.47;;;1.50;;
49235;SDS011;35067;48.134;8.378;2023-09-19T01:42:37;2.70;;;1.57;;
49235;SDS011;35067;48.134;8.378;2023-09-19T01:43:45;1.50;;;1.40;;
49235;SDS011;35067;48.134;8.378;2023-09-19T01:46:58;2.60;;;1.40;;
49235;SDS011;35067;48.134;8.378;2023-09-19T01:48:13;2.78;;;1.50;;
49235;SDS011;35067;48.134;8.378;2023-09-19T01:52:09;1.60;;;1.47;;
49235;SDS011;35067;48.134;8.378;2023-09-19T01:53:22;1.50;;;1.30;;
49235;SDS011;35067;48.134;8.378;2023-09-19T01:54:30;2.33;;;1.30;;
49235;SDS011;35067;48.134;8.378;2023-09-19T01:55:35;1.50;;;1.40;;
49235;SDS011;35067;48.134;8.378;2023-09-19T01:56:49;2.22;;;1.30;;
49235;SDS011;35067;48.134;8.378;2023-09-19T01:58:17;1.40;;;1.30;;
49235;SDS011;35067;48.134;8.378;2023-09-19T01:59:24;1.60;;;1.40;;
49235;SDS011;35067;48.134;8.378;2023-09-19T02:00:28;1.80;;;1.23;;
49235;SDS011;35067;48.134;8.378;2023-09-19T02:01:32;1.43;;;1.33;;
49235;SDS011;35067;48.134;8.378;2023-09-19T02:02:38;2.30;;;1.30;;
49235;SDS011;35067;48.134;8.378;2023-09-19T02:03:42;3.42;;;1.45;;
49235;SDS011;35067;48.134;8.378;2023-09-19T02:04:44;3.33;;;1.30;;
49235;SDS011;35067;48.134;8.378;2023-09-19T02:05:51;1.40;;;1.30;;
49235;SDS011;35067;48.134;8.378;2023-09-19T02:06:53;1.70;;;1.30;;
49235;SDS011;35067;48.134;8.378;2023-09-19T02:07:54;1.47;;;1.37;;
49235;SDS011;35067;48.134;8.378;2023-09-19T02:08:56;2.23;;;1.47;;
49235;SDS011;35067;48.134;8.378;2023-09-19T02:09:59;2.13;;;1.40;;
49235;SDS011;35067;48.134;8.378;2023-09-19T02:11:00;2.17;;;1.40;;
49235;SDS011;35067;48.134;8.378;2023-09-19T02:12:01;2.30;;;1.60;;
49235;SDS011;35067;48.134;8.378;2023-09-19T02:13:03;3.13;;;1.50;;
49235;SDS011;35067;48.134;8.378;2023-09-19T02:14:04;3.60;;;1.33;;
49235;SDS011;35067;48.134;8.378;2023-09-19T02:15:08;2.70;;;1.43;;
49235;SDS011;35067;48.134;8.378;2023-09-19T02:16:09;1.63;;;1.40;;
49235;SDS011;35067;48.134;8.378;2023-09-19T02:17:10;4.40;;;1.20;;
49235;SDS011;35067;48.134;8.378;2023-09-19T02:18:12;2.10;;;1.47;;
49235;SDS011;35067;48.134;8.378;2023-09-19T02:19:14;1.73;;;1.20;;
49235;SDS011;35067;48.134;8.378;2023-09-19T02:20:15;2.30;;;1.37;;
49235;SDS011;35067;48.134;8.378;2023-09-19T02:21:17;2.80;;;1.20;;
49235;SDS011;35067;48.134;8.378;2023-09-19T02:22:18;1.90;;;1.30;;
49235;SDS011;35067;48.134;8.378;2023-09-19T02:23:18;2.27;;;1.50;;
49235;SDS011;35067;48.134;8.378;2023-09-19T02:24:19;2.30;;;1.30;;
49235;SDS011;35067;48.134;8.378;2023-09-19T02:25:20;1.73;;;1.40;;
49235;SDS011;35067;48.134;8.378;2023-09-19T02:26:20;2.03;;;1.30;;
49235;SDS011;35067;48.134;8.378;2023-09-19T02:27:21;2.03;;;1.20;;
49235;SDS011;35067;48.134;8.378;2023-09-19T02:28:22;1.63;;;1.20;;
49235;SDS011;35067;48.134;8.378;2023-09-19T02:29:23;1.63;;;1.27;;
49235;SDS011;35067;48.134;8.378;2023-09-19T02:30:24;2.50;;;1.40;;
49235;SDS011;35067;48.134;8.378;2023-09-19T02:31:25;2.43;;;1.27;;
49235;SDS011;35067;48.134;8.378;2023-09-19T02:32:29;1.60;;;1.38;;
49235;SDS011;35067;48.134;8.378;2023-09-19T02:33:31;3.13;;;1.40;;
49235;SDS011;35067;48.134;8.378;2023-09-19T02:34:32;2.47;;;1.40;;
49235;SDS011;35067;48.134;8.378;2023-09-19T02:35:36;2.07;;;1.23;;
49235;SDS011;35067;48.134;8.378;2023-09-19T02:36:36;1.33;;;1.10;;
49235;SDS011;35067;48.134;8.378;2023-09-19T02:37:37;1.63;;;1.43;;
49235;SDS011;35067;48.134;8.378;2023-09-19T02:38:38;2.13;;;1.47;;
49235;SDS011;35067;48.134;8.378;2023-09-19T02:39:38;1.37;;;1.13;;
49235;SDS011;35067;48.134;8.378;2023-09-19T02:40:39;2.73;;;1.10;;
49235;SDS011;35067;48.134;8.378;2023-09-19T02:41:40;2.27;;;1.47;;
49235;SDS011;35067;48.134;8.378;2023-09-19T02:42:42;1.93;;;1.20;;
49235;SDS011;35067;48.134;8.378;2023-09-19T02:43:46;1.52;;;0.90;;
49235;SDS011;35067;48.134;8.378;2023-09-19T02:44:47;1.80;;;1.30;;
49235;SDS011;35067;48.134;8.378;2023-09-19T02:45:48;3.17;;;1.30;;
49235;SDS011;35067;48.134;8.378;2023-09-19T02:46:50;3.13;;;1.30;;
49235;SDS011;35067;48.134;8.378;2023-09-19T02:47:50;3.10;;;1.20;;
49235;SDS011;35067;48.134;8.378;2023-09-19T02:48:51;1.63;;;1.20;;
49235;SDS011;35067;48.134;8.378;2023-09-19T02:49:52;2.60;;;1.23;;
49235;SDS011;35067;48.134;8.378;2023-09-19T02:50:52;3.23;;;1.20;;
49235;SDS011;35067;48.134;8.378;2023-09-19T02:51:53;1.83;;;1.40;;
49235;SDS011;35067;48.134;8.378;2023-09-19T02:52:53;2.43;;;1.20;;
49235;SDS011;35067;48.134;8.378;2023-09-19T02:53:54;1.57;;;1.20;;
49235;SDS011;35067;48.134;8.378;2023-09-19T02:54:55;1.47;;;1.20;;
49235;SDS011;35067;48.134;8.378;2023-09-19T02:55:55;3.07;;;1.27;;
49235;SDS011;35067;48.134;8.378;2023-09-19T02:56:56;1.53;;;1.20;;
49235;SDS011;35067;48.134;8.378;2023-09-19T02:57:58;4.87;;;1.50;;
49235;SDS011;35067;48.134;8.378;2023-09-19T02:59:00;1.63;;;1.00;;
49235;SDS011;35067;48.134;8.378;2023-09-19T03:00:01;2.77;;;1.57;;
49235;SDS011;35067;48.134;8.378;2023-09-19T03:01:09;2.70;;;1.40;;
49235;SDS011;35067;48.134;8.378;2023-09-19T03:02:13;2.17;;;1.30;;
49235;SDS011;35067;48.134;8.378;2023-09-19T03:03:14;3.20;;;1.20;;
49235;SDS011;35067;48.134;8.378;2023-09-19T03:04:16;1.87;;;1.50;;
49235;SDS011;35067;48.134;8.378;2023-09-19T03:05:20;1.47;;;1.30;;
49235;SDS011;35067;48.134;8.378;2023-09-19T03:06:23;1.87;;;1.40;;
49235;SDS011;35067;48.134;8.378;2023-09-19T03:07:23;1.53;;;1.30;;
49235;SDS011;35067;48.134;8.378;2023-09-19T03:08:25;2.03;;;1.35;;
49235;SDS011;35067;48.134;8.378;2023-09-19T03:09:25;3.00;;;1.20;;
49235;SDS011;35067;48.134;8.378;2023-09-19T03:10:26;1.63;;;1.40;;
49235;SDS011;35067;48.134;8.378;2023-09-19T03:11:28;2.27;;;1.60;;
49235;SDS011;35067;48.134;8.378;2023-09-19T03:12:28;4.27;;;1.40;;
49235;SDS011;35067;48.134;8.378;2023-09-19T03:13:29;1.83;;;1.30;;
49235;SDS011;35067;48.134;8.378;2023-09-19T03:14:31;1.63;;;1.40;;
49235;SDS011;35067;48.134;8.378;2023-09-19T03:15:35;2.43;;;1.40;;
49235;SDS011;35067;48.134;8.378;2023-09-19T03:16:39;3.43;;;1.40;;
49235;SDS011;35067;48.134;8.378;2023-09-19T03:17:42;2.80;;;1.57;;
49235;SDS011;35067;48.134;8.378;2023-09-19T03:18:44;3.87;;;1.30;;
49235;SDS011;35067;48.134;8.378;2023-09-19T03:19:47;2.23;;;1.60;;
49235;SDS011;35067;48.134;8.378;2023-09-19T03:20:54;2.70;;;1.30;;
49235;SDS011;35067;48.134;8.378;2023-09-19T03:21:55;2.05;;;1.30;;
49235;SDS011;35067;48.134;8.378;2023-09-19T03:22:57;2.87;;;1.37;;
49235;SDS011;35067;48.134;8.378;2023-09-19T03:23:58;1.77;;;1.40;;
49235;SDS011;35067;48.134;8.378;2023-09-19T03:24:58;2.10;;;1.27;;
49235;SDS011;35067;48.134;8.378;2023-09-19T03:26:00;2.05;;;1.20;;
49235;SDS011;35067;48.134;8.378;2023-09-19T03:27:01;1.77;;;1.30;;
49235;SDS011;35067;48.134;8.378;2023-09-19T03:28:03;1.73;;;1.57;;
49235;SDS011;35067;48.134;8.378;2023-09-19T03:29:07;1.20;;;1.10;;
49235;SDS011;35067;48.134;8.378;2023-09-19T03:30:10;3.30;;;1.30;;
49235;SDS011;35067;48.134;8.378;2023-09-19T03:31:13;2.07;;;1.53;;
49235;SDS011;35067;48.134;8.378;2023-09-19T03:32:13;1.40;;;1.30;;
49235;SDS011;35067;48.134;8.378;2023-09-19T03:33:15;1.43;;;1.33;;
49235;SDS011;35067;48.134;8.378;2023-09-19T03:34:16;2.90;;;1.60;;
49235;SDS011;35067;48.134;8.378;2023-09-19T03:35:17;3.50;;;1.70;;
49235;SDS011;35067;48.134;8.378;2023-09-19T03:36:18;2.73;;;1.60;;
49235;SDS011;35067;48.134;8.378;2023-09-19T03:37:19;4.40;;;1.60;;
49235;SDS011;35067;48.134;8.378;2023-09-19T03:38:19;3.00;;;1.50;;
49235;SDS011;35067;48.134;8.378;2023-09-19T03:39:21;2.28;;;1.42;;
49235;SDS011;35067;48.134;8.378;2023-09-19T03:40:22;1.70;;;1.50;;
49235;SDS011;35067;48.134;8.378;2023-09-19T03:41:23;2.37;;;1.70;;
49235;SDS011;35067;48.134;8.378;2023-09-19T03:42:24;4.37;;;2.10;;
49235;SDS011;35067;48.134;8.378;2023-09-19T03:43:26;4.23;;;2.10;;
49235;SDS011;35067;48.134;8.378;2023-09-19T03:44:27;2.80;;;2.10;;
49235;SDS011;35067;48.134;8.378;2023-09-19T03:45:27;3.97;;;2.60;;
49235;SDS011;35067;48.134;8.378;2023-09-19T03:46:28;5.03;;;2.70;;
49235;SDS011;35067;48.134;8.378;2023-09-19T03:47:30;4.80;;;2.40;;
49235;SDS011;35067;48.134;8.378;2023-09-19T03:48:30;3.07;;;2.20;;
49235;SDS011;35067;48.134;8.378;2023-09-19T03:49:31;3.67;;;2.27;;
49235;SDS011;35067;48.134;8.378;2023-09-19T03:50:32;2.37;;;2.00;;
49235;SDS011;35067;48.134;8.378;2023-09-19T03:51:33;2.13;;;1.93;;
49235;SDS011;35067;48.134;8.378;2023-09-19T03:52:34;2.73;;;2.10;;
49235;SDS011;35067;48.134;8.378;2023-09-19T03:53:34;3.60;;;2.23;;
49235;SDS011;35067;48.134;8.378;2023-09-19T03:54:35;4.27;;;2.67;;
49235;SDS011;35067;48.134;8.378;2023-09-19T03:55:36;3.70;;;2.40;;
49235;SDS011;35067;48.134;8.378;2023-09-19T03:56:38;2.85;;;2.10;;
49235;SDS011;35067;48.134;8.378;2023-09-19T03:57:39;3.77;;;2.50;;
49235;SDS011;35067;48.134;8.378;2023-09-19T03:58:39;4.30;;;2.13;;
49235;SDS011;35067;48.134;8.378;2023-09-19T03:59:40;3.13;;;2.20;;
49235;SDS011;35067;48.134;8.378;2023-09-19T04:00:42;2.80;;;1.47;;
49235;SDS011;35067;48.134;8.378;2023-09-19T04:01:43;4.23;;;1.60;;
49235;SDS011;35067;48.134;8.378;2023-09-19T04:02:43;2.33;;;1.83;;
49235;SDS011;35067;48.134;8.378;2023-09-19T04:03:46;4.22;;;2.03;;
49235;SDS011;35067;48.134;8.378;2023-09-19T04:04:48;4.40;;;2.30;;
49235;SDS011;35067;48.134;8.378;2023-09-19T04:05:48;4.15;;;2.58;;
49235;SDS011;35067;48.134;8.378;2023-09-19T04:06:49;3.57;;;2.20;;
49235;SDS011;35067;48.134;8.378;2023-09-19T04:07:49;5.23;;;2.83;;
49235;SDS011;35067;48.134;8.378;2023-09-19T04:08:50;5.23;;;2.40;;
49235;SDS011;35067;48.134;8.378;2023-09-19T04:09:51;3.07;;;1.80;;
49235;SDS011;35067;48.134;8.378;2023-09-19T04:10:55;4.50;;;1.90;;
49235;SDS011;35067;48.134;8.378;2023-09-19T04:11:56;2.22;;;1.35;;
49235;SDS011;35067;48.134;8.378;2023-09-19T04:12:57;2.83;;;2.10;;
49235;SDS011;35067;48.134;8.378;2023-09-19T04:13:58;4.80;;;2.33;;
49235;SDS011;35067;48.134;8.378;2023-09-19T04:14:58;2.73;;;1.80;;
49235;SDS011;35067;48.134;8.378;2023-09-19T04:15:59;2.40;;;2.00;;
49235;SDS011;35067;48.134;8.378;2023-09-19T04:17:00;2.17;;;1.80;;
49235;SDS011;35067;48.134;8.378;2023-09-19T04:18:00;6.03;;;2.10;;
49235;SDS011;35067;48.134;8.378;2023-09-19T04:19:03;2.33;;;1.70;;
49235;SDS011;35067;48.134;8.378;2023-09-19T04:20:04;2.23;;;1.90;;
49235;SDS011;35067;48.134;8.378;2023-09-19T04:21:06;3.83;;;1.80;;
49235;SDS011;35067;48.134;8.378;2023-09-19T04:22:07;3.80;;;2.07;;
49235;SDS011;35067;48.134;8.378;2023-09-19T04:23:09;2.87;;;1.97;;
49235;SDS011;35067;48.134;8.378;2023-09-19T04:24:09;3.47;;;2.03;;
49235;SDS011;35067;48.134;8.378;2023-09-19T04:25:10;3.77;;;2.07;;
49235;SDS011;35067;48.134;8.378;2023-09-19T04:26:10;5.27;;;2.50;;
49235;SDS011;35067;48.134;8.378;2023-09-19T04:27:12;3.10;;;1.83;;
49235;SDS011;35067;48.134;8.378;2023-09-19T04:28:14;4.23;;;1.83;;
49235;SDS011;35067;48.134;8.378;2023-09-19T04:29:15;2.73;;;1.70;;
49235;SDS011;35067;48.134;8.378;2023-09-19T04:30:16;2.40;;;1.70;;
49235;SDS011;35067;48.134;8.378;2023-09-19T04:31:16;1.90;;;1.67;;
49235;SDS011;35067;48.134;8.378;2023-09-19T04:32:18;4.03;;;1.53;;
49235;SDS011;35067;48.134;8.378;2023-09-19T04:33:19;2.73;;;1.50;;
49235;SDS011;35067;48.134;8.378;2023-09-19T04:34:19;1.10;;;1.00;;
49235;SDS011;35067;48.134;8.378;2023-09-19T04:35:20;1.30;;;1.20;;
49235;SDS011;35067;48.134;8.378;2023-09-19T04:36:21;1.43;;;1.10;;
49235;SDS011;35067;48.134;8.378;2023-09-19T04:37:22;1.60;;;1.10;;
49235;SDS011;35067;48.134;8.378;2023-09-19T04:38:23;1.90;;;1.20;;
49235;SDS011;35067;48.134;8.378;2023-09-19T04:39:24;1.73;;;1.23;;
49235;SDS011;35067;48.134;8.378;2023-09-19T04:40:25;1.03;;;1.00;;
49235;SDS011;35067;48.134;8.378;2023-09-19T04:41:29;1.05;;;0.95;;
49235;SDS011;35067;48.134;8.378;2023-09-19T04:42:30;2.30;;;1.03;;
49235;SDS011;35067;48.134;8.378;2023-09-19T04:43:30;1.17;;;1.07;;
49235;SDS011;35067;48.134;8.378;2023-09-19T04:44:31;3.73;;;1.30;;
49235;SDS011;35067;48.134;8.378;2023-09-19T04:45:31;1.10;;;1.00;;
49235;SDS011;35067;48.134;8.378;2023-09-19T04:46:32;2.37;;;1.07;;
49235;SDS011;35067;48.134;8.378;2023-09-19T04:47:33;1.10;;;1.00;;
49235;SDS011;35067;48.134;8.378;2023-09-19T04:48:34;1.97;;;1.20;;
49235;SDS011;35067;48.134;8.378;2023-09-19T04:49:34;1.30;;;1.20;;
49235;SDS011;35067;48.134;8.378;2023-09-19T04:50:35;1.97;;;1.00;;
49235;SDS011;35067;48.134;8.378;2023-09-19T04:51:37;1.00;;;0.90;;
49235;SDS011;35067;48.134;8.378;2023-09-19T04:52:40;1.33;;;1.03;;
49235;SDS011;35067;48.134;8.378;2023-09-19T04:53:42;1.23;;;1.10;;
49235;SDS011;35067;48.134;8.378;2023-09-19T04:54:43;1.77;;;1.10;;
49235;SDS011;35067;48.134;8.378;2023-09-19T04:55:45;1.67;;;1.20;;
49235;SDS011;35067;48.134;8.378;2023-09-19T04:56:46;1.70;;;1.17;;
49235;SDS011;35067;48.134;8.378;2023-09-19T04:57:47;2.00;;;1.20;;
49235;SDS011;35067;48.134;8.378;2023-09-19T04:58:52;1.73;;;1.20;;
49235;SDS011;35067;48.134;8.378;2023-09-19T04:59:53;2.97;;;1.40;;
49235;SDS011;35067;48.134;8.378;2023-09-19T05:00:54;2.07;;;1.20;;
49235;SDS011;35067;48.134;8.378;2023-09-19T05:01:56;1.53;;;1.23;;
49235;SDS011;35067;48.134;8.378;2023-09-19T05:02:57;1.73;;;1.40;;
49235;SDS011;35067;48.134;8.378;2023-09-19T05:03:57;1.87;;;1.30;;
49235;SDS011;35067;48.134;8.378;2023-09-19T05:04:58;2.37;;;1.20;;
49235;SDS011;35067;48.134;8.378;2023-09-19T05:05:59;1.52;;;1.20;;
49235;SDS011;35067;48.134;8.378;2023-09-19T05:06:59;1.97;;;1.60;;
49235;SDS011;35067;48.134;8.378;2023-09-19T05:08:03;2.10;;;1.20;;
49235;SDS011;35067;48.134;8.378;2023-09-19T05:09:05;1.70;;;1.33;;
49235;SDS011;35067;48.134;8.378;2023-09-19T05:10:06;1.10;;;1.00;;
49235;SDS011;35067;48.134;8.378;2023-09-19T05:11:07;2.00;;;1.10;;
49235;SDS011;35067;48.134;8.378;2023-09-19T05:12:09;2.67;;;1.50;;
49235;SDS011;35067;48.134;8.378;2023-09-19T05:13:10;1.50;;;1.30;;
49235;SDS011;35067;48.134;8.378;2023-09-19T05:14:12;1.30;;;1.20;;
49235;SDS011;35067;48.134;8.378;2023-09-19T05:15:13;3.27;;;1.40;;
49235;SDS011;35067;48.134;8.378;2023-09-19T05:16:17;2.13;;;1.23;;
49235;SDS011;35067;48.134;8.378;2023-09-19T05:17:17;1.67;;;1.20;;
49235;SDS011;35067;48.134;8.378;2023-09-19T05:18:19;1.87;;;1.57;;
49235;SDS011;35067;48.134;8.378;2023-09-19T05:19:20;1.53;;;1.40;;
49235;SDS011;35067;48.134;8.378;2023-09-19T05:20:20;2.03;;;1.17;;
49235;SDS011;35067;48.134;8.378;2023-09-19T05:21:30;3.10;;;1.20;;
49235;SDS011;35067;48.134;8.378;2023-09-19T05:22:31;1.30;;;1.20;;
49235;SDS011;35067;48.134;8.378;2023-09-19T05:23:32;1.17;;;1.03;;
49235;SDS011;35067;48.134;8.378;2023-09-19T05:24:33;1.40;;;1.30;;
49235;SDS011;35067;48.134;8.378;2023-09-19T05:25:35;2.07;;;1.47;;
49235;SDS011;35067;48.134;8.378;2023-09-19T05:26:39;1.70;;;1.57;;
49235;SDS011;35067;48.134;8.378;2023-09-19T05:27:40;1.53;;;1.30;;
49235;SDS011;35067;48.134;8.378;2023-09-19T05:28:42;1.77;;;1.50;;
49235;SDS011;35067;48.134;8.378;2023-09-19T05:29:43;1.80;;;1.50;;
49235;SDS011;35067;48.134;8.378;2023-09-19T05:30:44;1.90;;;1.60;;
49235;SDS011;35067;48.134;8.378;2023-09-19T05:31:46;1.70;;;1.40;;
49235;SDS011;35067;48.134;8.378;2023-09-19T05:32:46;1.53;;;1.30;;
49235;SDS011;35067;48.134;8.378;2023-09-19T05:33:47;1.40;;;1.30;;
49235;SDS011;35067;48.134;8.378;2023-09-19T05:34:47;2.13;;;1.50;;
49235;SDS011;35067;48.134;8.378;2023-09-19T05:35:48;4.57;;;2.40;;
49235;SDS011;35067;48.134;8.378;2023-09-19T05:36:49;3.30;;;1.63;;
49235;SDS011;35067;48.134;8.378;2023-09-19T05:37:52;4.17;;;2.70;;
49235;SDS011;35067;48.134;8.378;2023-09-19T05:38:55;3.03;;;2.07;;
49235;SDS011;35067;48.134;8.378;2023-09-19T05:39:55;4.37;;;2.47;;
49235;SDS011;35067;48.134;8.378;2023-09-19T05:40:57;3.20;;;2.13;;
49235;SDS011;35067;48.134;8.378;2023-09-19T05:41:58;2.87;;;2.13;;
49235;SDS011;35067;48.134;8.378;2023-09-19T05:43:00;2.13;;;1.80;;
49235;SDS011;35067;48.134;8.378;2023-09-19T05:44:02;2.50;;;2.10;;
49235;SDS011;35067;48.134;8.378;2023-09-19T05:45:03;2.57;;;2.00;;
49235;SDS011;35067;48.134;8.378;2023-09-19T05:46:06;2.07;;;1.70;;
49235;SDS011;35067;48.134;8.378;2023-09-19T05:47:08;2.97;;;1.60;;
49235;SDS011;35067;48.134;8.378;2023-09-19T05:48:09;1.70;;;1.50;;
49235;SDS011;35067;48.134;8.378;2023-09-19T05:49:11;2.42;;;1.42;;
49235;SDS011;35067;48.134;8.378;2023-09-19T05:50:12;1.87;;;1.60;;
49235;SDS011;35067;48.134;8.378;2023-09-19T05:51:15;1.50;;;1.40;;
49235;SDS011;35067;48.134;8.378;2023-09-19T05:52:17;1.40;;;1.30;;
49235;SDS011;35067;48.134;8.378;2023-09-19T05:53:19;2.10;;;1.30;;
49235;SDS011;35067;48.134;8.378;2023-09-19T05:54:19;1.60;;;1.40;;
49235;SDS011;35067;48.134;8.378;2023-09-19T05:55:20;1.93;;;1.33;;
49235;SDS011;35067;48.134;8.378;2023-09-19T05:56:21;2.33;;;1.50;;
49235;SDS011;35067;48.134;8.378;2023-09-19T05:57:22;1.50;;;1.40;;
49235;SDS011;35067;48.134;8.378;2023-09-19T05:58:24;1.57;;;1.43;;
49235;SDS011;35067;48.134;8.378;2023-09-19T05:59:25;3.10;;;1.50;;
49235;SDS011;35067;48.134;8.378;2023-09-19T06:00:26;1.60;;;1.30;;
49235;SDS011;35067;48.134;8.378;2023-09-19T06:01:31;2.53;;;1.67;;
49235;SDS011;35067;48.134;8.378;2023-09-19T06:02:35;2.17;;;1.63;;
49235;SDS011;35067;48.134;8.378;2023-09-19T06:03:36;2.50;;;1.87;;
49235;SDS011;35067;48.134;8.378;2023-09-19T06:04:37;2.37;;;1.67;;
49235;SDS011;35067;48.134;8.378;2023-09-19T06:05:40;3.97;;;1.90;;
49235;SDS011;35067;48.134;8.378;2023-09-19T06:06:41;2.53;;;1.70;;
49235;SDS011;35067;48.134;8.378;2023-09-19T06:07:42;2.03;;;1.57;;
49235;SDS011;35067;48.134;8.378;2023-09-19T06:08:43;2.83;;;1.77;;
49235;SDS011;35067;48.134;8.378;2023-09-19T06:09:45;3.30;;;1.55;;
49235;SDS011;35067;48.134;8.378;2023-09-19T06:10:46;2.20;;;1.70;;
49235;SDS011;35067;48.134;8.378;2023-09-19T06:11:46;4.70;;;3.00;;
49235;SDS011;35067;48.134;8.378;2023-09-19T06:12:47;4.43;;;2.47;;
49235;SDS011;35067;48.134;8.378;2023-09-19T06:13:48;3.00;;;2.17;;
49235;SDS011;35067;48.134;8.378;2023-09-19T06:14:48;3.43;;;2.40;;
49235;SDS011;35067;48.134;8.378;2023-09-19T06:15:49;4.13;;;2.47;;
49235;SDS011;35067;48.134;8.378;2023-09-19T06:16:50;1.97;;;1.77;;
49235;SDS011;35067;48.134;8.378;2023-09-19T06:17:54;2.53;;;2.00;;
49235;SDS011;35067;48.134;8.378;2023-09-19T06:18:56;3.30;;;2.13;;
49235;SDS011;35067;48.134;8.378;2023-09-19T06:19:57;2.73;;;2.00;;
49235;SDS011;35067;48.134;8.378;2023-09-19T06:20:57;2.90;;;2.00;;
49235;SDS011;35067;48.134;8.378;2023-09-19T06:21:58;3.97;;;2.33;;
49235;SDS011;35067;48.134;8.378;2023-09-19T06:22:59;3.20;;;1.70;;
49235;SDS011;35067;48.134;8.378;2023-09-19T06:24:02;4.77;;;2.77;;
49235;SDS011;35067;48.134;8.378;2023-09-19T06:25:03;4.23;;;3.20;;
49235;SDS011;35067;48.134;8.378;2023-09-19T06:26:03;5.30;;;3.13;;
49235;SDS011;35067;48.134;8.378;2023-09-19T06:27:06;4.83;;;2.60;;
49235;SDS011;35067;48.134;8.378;2023-09-19T06:28:09;2.83;;;2.30;;
49235;SDS011;35067;48.134;8.378;2023-09-19T06:29:13;2.53;;;1.97;;
49235;SDS011;35067;48.134;8.378;2023-09-19T06:30:14;3.30;;;1.60;;
49235;SDS011;35067;48.134;8.378;2023-09-19T06:31:15;3.27;;;1.93;;
49235;SDS011;35067;48.134;8.378;2023-09-19T06:32:16;2.10;;;1.90;;